createdAt,value
2023-01-20T00:01:24.728Z,16.02
2023-01-20T00:03:53.079Z,19.58
2023-01-20T00:06:20.094Z,16.08
2023-01-20T00:08:51.030Z,18.17
2023-01-20T00:11:23.786Z,15.32
2023-01-20T00:13:55.354Z,16.93
2023-01-20T00:16:22.909Z,17.10
2023-01-20T00:18:49.788Z,18.25
2023-01-20T00:21:19.770Z,18.92
2023-01-20T00:23:47.382Z,19.58
2023-01-20T00:26:19.912Z,16.25
2023-01-20T00:28:47.903Z,19.30
2023-01-20T00:31:18.115Z,17.42
2023-01-20T00:33:45.389Z,17.52
2023-01-20T00:36:13.405Z,16.35
2023-01-20T00:38:39.860Z,17.77
2023-01-20T00:41:07.222Z,25.33
2023-01-20T00:43:33.669Z,26.30
2023-01-20T00:46:00.317Z,17.98
2023-01-20T00:48:26.937Z,18.65
2023-01-20T00:50:54.399Z,23.52
2023-01-20T00:53:20.879Z,17.80
2023-01-20T00:55:47.361Z,19.02
2023-01-20T00:58:13.774Z,17.00
2023-01-20T01:00:40.302Z,16.55
2023-01-20T01:03:06.797Z,17.58
2023-01-20T01:05:34.253Z,16.73
2023-01-20T01:08:00.665Z,17.50
2023-01-20T01:10:27.337Z,15.00
2023-01-20T01:12:53.745Z,15.43
2023-01-20T01:15:20.111Z,14.27
2023-01-20T01:17:46.508Z,14.93
2023-01-20T01:20:13.782Z,12.80
2023-01-20T01:22:40.654Z,12.75
2023-01-20T01:25:07.464Z,18.30
2023-01-20T01:27:33.894Z,16.38
2023-01-20T01:30:00.650Z,16.38
2023-01-20T01:32:27.572Z,17.13
2023-01-20T01:34:54.083Z,20.17
2023-01-20T01:37:20.768Z,16.60
2023-01-20T01:39:47.299Z,19.23
2023-01-20T01:42:15.923Z,17.10
2023-01-20T01:45:10.081Z,15.80
2023-01-20T01:50:22.307Z,12.50
2023-01-20T01:52:52.824Z,14.60
2023-01-20T01:55:21.032Z,14.40
2023-01-20T01:57:49.615Z,13.77
2023-01-20T02:00:16.757Z,14.48
2023-01-20T02:02:47.271Z,11.98
2023-01-20T02:05:16.382Z,11.50
2023-01-20T02:07:46.241Z,10.48
2023-01-20T02:10:13.217Z,14.13
2023-01-20T02:12:40.394Z,12.02
2023-01-20T02:15:08.580Z,15.50
2023-01-20T02:17:53.952Z,12.15
2023-01-20T02:20:44.695Z,14.15
2023-01-20T02:23:26.308Z,11.50
2023-01-20T02:26:20.190Z,16.45
2023-01-20T02:29:21.413Z,15.68
2023-01-20T02:32:11.295Z,13.55
2023-01-20T02:34:46.004Z,18.05
2023-01-20T02:37:19.698Z,14.93
2023-01-20T02:39:57.685Z,19.23
2023-01-20T02:42:41.127Z,19.85
2023-01-20T02:45:33.960Z,19.85
2023-01-20T02:48:12.760Z,14.27
2023-01-20T02:51:00.923Z,13.90
2023-01-20T02:53:35.635Z,17.35
2023-01-20T02:56:02.813Z,19.63
2023-01-20T02:58:38.594Z,20.80
2023-01-20T03:01:10.826Z,15.80
2023-01-20T03:03:41.523Z,23.73
2023-01-20T03:06:15.668Z,22.05
2023-01-20T03:08:42.235Z,15.52
2023-01-20T03:11:09.277Z,20.15
2023-01-20T03:13:51.272Z,16.45
2023-01-20T03:16:21.336Z,21.20
2023-01-20T03:18:48.701Z,18.42
2023-01-20T03:21:15.547Z,22.05
2023-01-20T03:23:49.105Z,19.95
2023-01-20T03:26:18.231Z,17.80
2023-01-20T03:28:46.093Z,17.02
2023-01-20T03:31:26.084Z,17.42
2023-01-20T03:33:55.662Z,17.50
2023-01-20T03:36:24.809Z,18.30
2023-01-20T03:38:56.448Z,17.90
2023-01-20T03:41:47.958Z,18.63
2023-01-20T03:44:24.117Z,19.48
2023-01-20T03:47:08.728Z,14.80
2023-01-20T03:49:51.804Z,15.85
2023-01-20T03:52:48.483Z,18.17
2023-01-20T03:55:41.840Z,17.08
2023-01-20T03:58:11.969Z,15.65
2023-01-20T04:00:44.004Z,16.45
2023-01-20T04:03:18.817Z,18.73
2023-01-20T04:05:47.854Z,15.05
2023-01-20T04:08:17.306Z,15.82
2023-01-20T04:10:47.478Z,17.60
2023-01-20T04:13:15.131Z,15.13
2023-01-20T04:15:46.485Z,19.50
2023-01-20T04:18:15.159Z,15.02
2023-01-20T04:20:43.458Z,17.88
2023-01-20T04:23:19.726Z,18.77
2023-01-20T04:25:46.149Z,17.20
2023-01-20T04:28:12.528Z,18.35
2023-01-20T04:30:39.092Z,16.20
2023-01-20T04:33:08.916Z,15.65
2023-01-20T04:35:35.375Z,17.52
2023-01-20T04:38:02.290Z,18.52
2023-01-20T04:40:28.748Z,18.02
2023-01-20T04:42:55.156Z,17.90
2023-01-20T04:45:21.535Z,18.77
2023-01-20T04:47:47.949Z,21.85
2023-01-20T04:50:15.325Z,16.52
2023-01-20T04:52:42.163Z,18.08
2023-01-20T04:55:09.189Z,15.10
2023-01-20T04:57:37.192Z,19.95
2023-01-20T05:00:05.669Z,21.88
2023-01-20T05:02:32.185Z,15.18
2023-01-20T05:04:58.607Z,21.95
2023-01-20T05:07:25.061Z,17.70
2023-01-20T05:09:51.464Z,18.50
2023-01-20T05:12:18.012Z,14.75
2023-01-20T05:14:44.428Z,16.30
2023-01-20T05:17:10.912Z,15.13
2023-01-20T05:19:37.348Z,13.45
2023-01-20T05:22:03.819Z,17.35
2023-01-20T05:24:30.842Z,21.10
2023-01-20T05:27:00.473Z,15.88
2023-01-20T05:29:27.903Z,19.83
2023-01-20T05:31:54.331Z,18.05
2023-01-20T05:34:20.821Z,21.67
2023-01-20T05:36:51.964Z,16.58
2023-01-20T05:39:19.403Z,18.83
2023-01-20T05:41:46.522Z,21.58
2023-01-20T05:44:15.409Z,17.33
2023-01-20T05:46:42.216Z,16.92
2023-01-20T05:49:11.247Z,16.27
2023-01-20T05:51:37.736Z,15.23
2023-01-20T05:54:04.392Z,19.42
2023-01-20T05:56:30.800Z,19.25
2023-01-20T05:58:57.262Z,16.65
2023-01-20T06:01:23.979Z,21.40
2023-01-20T06:03:50.624Z,19.30
2023-01-20T06:06:18.573Z,17.48
2023-01-20T06:08:45.655Z,21.45
2023-01-20T06:11:13.698Z,22.60
2023-01-20T06:13:40.137Z,19.92
2023-01-20T06:16:07.656Z,16.73
2023-01-20T06:18:34.617Z,16.70
2023-01-20T06:21:01.204Z,16.65
2023-01-20T06:23:27.911Z,22.63
2023-01-20T06:26:06.299Z,23.67
2023-01-20T06:28:34.014Z,21.80
2023-01-20T06:31:12.081Z,21.42
2023-01-20T06:33:38.933Z,25.88
2023-01-20T06:36:06.727Z,25.90
2023-01-20T06:38:34.832Z,23.55
2023-01-20T06:41:03.992Z,21.70
2023-01-20T06:43:32.574Z,18.60
2023-01-20T06:46:01.306Z,19.85
2023-01-20T06:48:29.178Z,18.60
2023-01-20T06:51:07.546Z,19.75
2023-01-20T06:53:34.243Z,17.73
2023-01-20T06:56:01.427Z,18.08
2023-01-20T06:58:30.654Z,17.25
2023-01-20T07:00:58.606Z,20.95
2023-01-20T07:03:25.291Z,24.63
2023-01-20T07:05:59.321Z,25.55
2023-01-20T07:08:26.136Z,23.52
2023-01-20T07:10:52.503Z,18.42
2023-01-20T07:13:18.951Z,21.65
2023-01-20T07:15:45.718Z,27.27
2023-01-20T07:18:12.116Z,20.70
2023-01-20T07:20:43.234Z,20.77
2023-01-20T07:23:09.712Z,22.40
2023-01-20T07:25:38.110Z,18.90
2023-01-20T07:28:04.950Z,20.85
2023-01-20T07:30:35.643Z,19.70
2023-01-20T07:33:02.096Z,18.70
2023-01-20T07:35:29.319Z,17.10
2023-01-20T07:37:55.713Z,16.15
2023-01-20T07:40:22.156Z,16.92
2023-01-20T07:42:48.546Z,23.10
2023-01-20T07:45:16.279Z,28.95
2023-01-20T07:47:42.914Z,28.10
2023-01-20T07:50:09.896Z,27.33
2023-01-20T07:52:36.288Z,29.80
2023-01-20T07:55:03.169Z,34.10
2023-01-20T07:57:30.307Z,32.60
2023-01-20T07:59:56.895Z,30.65
2023-01-20T08:02:23.408Z,31.60
2023-01-20T08:04:49.942Z,31.42
2023-01-20T08:07:16.331Z,30.75
2023-01-20T08:09:43.958Z,26.45
2023-01-20T08:12:10.439Z,31.67
2023-01-20T08:14:37.934Z,30.30
2023-01-20T08:17:04.504Z,27.50
2023-01-20T08:19:30.917Z,26.63
2023-01-20T08:21:57.324Z,23.20
2023-01-20T08:24:23.760Z,22.95
2023-01-20T08:26:51.169Z,26.90
2023-01-20T08:29:17.769Z,26.95
2023-01-20T08:31:44.372Z,27.02
2023-01-20T08:34:12.170Z,33.00
2023-01-20T08:36:45.475Z,34.22
2023-01-20T08:39:14.977Z,33.25
2023-01-20T08:41:43.756Z,38.13
2023-01-20T08:44:10.951Z,39.40
2023-01-20T08:46:41.544Z,101.00
2023-01-20T08:49:16.267Z,55.13
2023-01-20T08:51:44.729Z,37.17
2023-01-20T08:54:11.771Z,31.98
2023-01-20T08:56:38.282Z,34.17
2023-01-20T08:59:04.992Z,31.58
2023-01-20T09:01:35.957Z,27.75
2023-01-20T09:04:06.216Z,34.20
2023-01-20T09:06:40.258Z,37.88
2023-01-20T09:11:33.566Z,35.00
2023-01-20T09:14:00.300Z,32.10
2023-01-20T09:16:27.020Z,36.17
2023-01-20T09:18:53.548Z,32.83
2023-01-20T09:21:20.138Z,32.25
2023-01-20T09:23:48.215Z,33.25
2023-01-20T09:26:26.132Z,35.72
2023-01-20T09:29:08.864Z,34.53
2023-01-20T09:31:46.833Z,35.67
2023-01-20T09:34:19.685Z,34.53
2023-01-20T09:36:50.037Z,31.40
2023-01-20T09:39:35.922Z,32.13
2023-01-20T09:42:37.791Z,38.90
2023-01-20T09:45:25.645Z,31.92
2023-01-20T09:47:58.775Z,33.85
2023-01-20T09:51:02.447Z,33.22
2023-01-20T09:53:42.424Z,30.02
2023-01-20T09:56:27.961Z,25.75
2023-01-20T09:59:09.107Z,28.75
2023-01-20T10:01:58.055Z,29.75
2023-01-20T10:04:32.973Z,30.60
2023-01-20T10:07:11.248Z,30.70
2023-01-20T10:09:49.544Z,28.10
2023-01-20T10:12:27.211Z,24.33
2023-01-20T10:15:20.578Z,31.15
2023-01-20T10:17:53.176Z,28.60
2023-01-20T10:20:41.379Z,25.58
2023-01-20T10:23:10.313Z,21.23
2023-01-20T10:25:53.724Z,27.45
2023-01-20T10:28:33.981Z,24.95
2023-01-20T10:31:04.509Z,19.10
2023-01-20T10:33:37.241Z,21.83
2023-01-20T10:36:04.422Z,29.80
2023-01-20T10:38:43.093Z,21.50
2023-01-20T10:41:19.824Z,21.60
2023-01-20T10:43:47.915Z,24.00
2023-01-20T10:46:44.059Z,21.58
2023-01-20T10:49:34.902Z,25.83
2023-01-20T10:52:29.310Z,29.00
2023-01-20T10:55:15.704Z,22.48
2023-01-20T10:57:42.431Z,25.23
2023-01-20T11:00:23.660Z,21.23
2023-01-20T11:02:52.499Z,22.65
2023-01-20T11:05:25.978Z,21.95
2023-01-20T11:08:13.136Z,19.45
2023-01-20T11:10:40.108Z,23.75
2023-01-20T11:13:10.702Z,21.40
2023-01-20T11:15:41.705Z,23.20
2023-01-20T11:18:14.223Z,20.92
2023-01-20T11:20:49.501Z,22.23
2023-01-20T11:23:23.929Z,25.58
2023-01-20T11:25:57.759Z,20.63
2023-01-20T11:28:25.131Z,21.05
2023-01-20T11:30:56.389Z,16.55
2023-01-20T11:33:26.423Z,19.15
2023-01-20T11:36:05.032Z,18.55
2023-01-20T11:38:46.308Z,22.45
2023-01-20T11:41:14.066Z,18.55
2023-01-20T11:43:40.945Z,25.33
2023-01-20T11:46:11.452Z,16.23
2023-01-20T11:48:38.540Z,20.63
2023-01-20T11:51:05.331Z,19.27
2023-01-20T11:53:33.240Z,19.10
2023-01-20T11:56:12.363Z,16.65
2023-01-20T11:59:02.062Z,18.45
2023-01-20T12:01:31.486Z,18.83
2023-01-20T12:04:01.064Z,18.73
2023-01-20T12:06:33.486Z,19.42
2023-01-20T12:09:04.885Z,17.13
2023-01-20T12:11:35.623Z,16.10
2023-01-20T12:14:21.195Z,16.38
2023-01-20T12:17:02.782Z,17.95
2023-01-20T12:20:06.290Z,16.13
2023-01-20T12:22:48.040Z,16.75
2023-01-20T12:25:25.020Z,19.25
2023-01-20T12:27:56.609Z,19.85
2023-01-20T12:30:36.586Z,21.85
2023-01-20T12:33:03.290Z,18.83
2023-01-20T12:35:37.617Z,17.85
2023-01-20T12:38:08.390Z,18.08
2023-01-20T12:40:48.829Z,16.98
2023-01-20T12:43:32.609Z,15.25
2023-01-20T12:46:17.353Z,19.45
2023-01-20T12:49:13.807Z,21.00
2023-01-20T12:51:42.050Z,15.07
2023-01-20T12:54:47.734Z,20.48
2023-01-20T12:57:59.942Z,14.65
2023-01-20T13:00:32.228Z,13.05
2023-01-20T13:03:24.372Z,18.10
2023-01-20T13:06:19.258Z,13.35
2023-01-20T13:09:08.836Z,15.27
2023-01-20T13:12:13.024Z,15.93
2023-01-20T13:14:47.484Z,21.67
2023-01-20T13:17:32.831Z,15.23
2023-01-20T13:20:02.849Z,15.75
2023-01-20T13:22:30.748Z,17.42
2023-01-20T13:24:59.763Z,16.00
2023-01-20T13:27:32.516Z,17.23
2023-01-20T13:30:03.094Z,16.37
2023-01-20T13:32:43.182Z,15.75
2023-01-20T13:35:15.754Z,18.23
2023-01-20T13:37:53.183Z,21.97
2023-01-20T13:40:37.754Z,16.50
2023-01-20T13:43:25.567Z,23.60
2023-01-20T13:46:07.426Z,17.08
2023-01-20T13:48:36.198Z,17.30
2023-01-20T13:51:21.565Z,17.98
2023-01-20T13:53:48.021Z,18.92
2023-01-20T13:56:28.179Z,17.48
2023-01-20T13:58:55.907Z,18.50
2023-01-20T14:01:22.373Z,20.88
2023-01-20T14:04:06.843Z,19.77
2023-01-20T14:06:35.763Z,27.88
2023-01-20T14:09:03.601Z,24.13
2023-01-20T14:11:31.324Z,22.00
2023-01-20T14:14:05.856Z,23.92
2023-01-20T14:16:35.188Z,23.48
2023-01-20T14:19:15.209Z,23.58
2023-01-20T14:21:42.645Z,22.88
2023-01-20T14:24:29.319Z,25.65
2023-01-20T14:27:21.774Z,25.35
2023-01-20T14:29:53.432Z,24.73
2023-01-20T14:32:23.780Z,21.73
2023-01-20T14:34:51.521Z,21.65
2023-01-20T14:37:27.649Z,21.25
2023-01-20T14:39:56.867Z,23.67
2023-01-20T14:42:23.661Z,25.90
2023-01-20T14:44:52.189Z,22.17
2023-01-20T14:47:21.016Z,25.90
2023-01-20T14:49:58.972Z,23.38
2023-01-20T14:52:30.736Z,23.52
2023-01-20T14:54:57.740Z,24.85
2023-01-20T14:57:40.649Z,34.33
2023-01-20T15:00:20.541Z,31.40
2023-01-20T15:03:09.265Z,26.52
2023-01-20T15:05:40.513Z,22.60
2023-01-20T15:08:18.614Z,27.38
2023-01-20T15:10:45.869Z,26.92
2023-01-20T15:13:28.066Z,30.30
2023-01-20T15:16:12.878Z,24.00
2023-01-20T15:18:39.791Z,25.58
2023-01-20T15:21:28.104Z,25.67
2023-01-20T15:23:54.548Z,29.17
2023-01-20T15:26:29.523Z,223.90
2023-01-20T15:28:57.425Z,138.77
2023-01-20T15:31:25.006Z,101.30
2023-01-20T15:33:51.517Z,32.15
2023-01-20T15:36:24.001Z,28.15
2023-01-20T15:38:51.058Z,30.25
2023-01-20T15:41:18.583Z,30.33
2023-01-20T15:43:45.589Z,57.65
2023-01-20T15:46:14.185Z,31.65
2023-01-20T15:48:41.325Z,27.30
2023-01-20T15:51:13.385Z,109.30
2023-01-20T15:53:39.936Z,105.15
2023-01-20T15:56:10.115Z,36.25
2023-01-20T15:58:37.218Z,92.15
2023-01-20T16:01:03.631Z,33.15
2023-01-20T16:03:33.190Z,31.42
2023-01-20T16:05:59.652Z,30.55
2023-01-20T16:08:35.664Z,29.25
2023-01-20T16:11:02.178Z,28.83
2023-01-20T16:13:28.717Z,32.40
2023-01-20T16:15:55.466Z,31.40
2023-01-20T16:18:22.468Z,32.83
2023-01-20T16:20:52.417Z,33.45
2023-01-20T16:23:19.373Z,34.80
2023-01-20T16:25:45.811Z,33.08
2023-01-20T16:28:14.596Z,31.25
2023-01-20T16:30:42.216Z,31.98
2023-01-20T16:33:20.657Z,31.38
2023-01-20T16:35:48.116Z,27.48
2023-01-20T16:38:15.935Z,32.05
2023-01-20T16:40:46.963Z,35.95
2023-01-20T16:43:13.853Z,32.90
2023-01-20T16:45:40.361Z,31.70
2023-01-20T16:48:09.182Z,29.55
2023-01-20T16:50:37.088Z,27.02
2023-01-20T16:53:04.042Z,36.90
2023-01-20T16:55:32.840Z,31.42
2023-01-20T16:57:59.423Z,29.67
2023-01-20T17:00:25.960Z,26.08
2023-01-20T17:02:53.325Z,33.65
2023-01-20T17:05:22.690Z,31.90
2023-01-20T17:07:50.193Z,34.33
2023-01-20T17:10:17.915Z,34.42
2023-01-20T17:12:46.716Z,34.72
2023-01-20T17:15:14.571Z,39.72
2023-01-20T17:17:41.670Z,38.00
2023-01-20T17:20:12.493Z,42.83
2023-01-20T17:22:40.105Z,33.92
2023-01-20T17:25:08.469Z,35.08
2023-01-20T17:27:35.906Z,35.92
2023-01-20T17:30:03.182Z,34.47
2023-01-20T17:32:29.611Z,32.10
2023-01-20T17:34:56.061Z,37.17
2023-01-20T17:37:22.513Z,31.35
2023-01-20T17:39:48.947Z,32.33
2023-01-20T17:42:17.576Z,29.58
2023-01-20T17:44:44.203Z,33.33
2023-01-20T17:47:11.596Z,34.83
2023-01-20T17:49:42.963Z,34.05
2023-01-20T17:52:09.540Z,37.33
2023-01-20T17:54:36.039Z,31.33
2023-01-20T17:57:02.658Z,37.45
2023-01-20T17:59:29.181Z,42.20
2023-01-20T18:01:56.773Z,41.33
2023-01-20T18:04:23.208Z,38.53
2023-01-20T18:06:49.646Z,35.60
2023-01-20T18:09:16.114Z,44.92
2023-01-20T18:11:43.659Z,39.20
2023-01-20T18:14:10.984Z,41.95
2023-01-20T18:16:43.263Z,50.25
2023-01-20T18:19:12.436Z,39.28
2023-01-20T18:21:39.534Z,40.13
2023-01-20T18:24:07.571Z,41.45
2023-01-20T18:26:36.121Z,44.40
2023-01-20T18:29:07.728Z,38.42
2023-01-20T18:31:35.117Z,48.13
2023-01-20T18:34:05.060Z,44.75
2023-01-20T18:36:34.387Z,56.63
2023-01-20T18:39:11.686Z,55.00
2023-01-20T18:41:38.340Z,41.72
2023-01-20T18:44:05.795Z,38.03
2023-01-20T18:46:32.949Z,42.55
2023-01-20T18:48:59.535Z,45.42
2023-01-20T18:51:28.402Z,40.92
2023-01-20T18:53:59.689Z,43.38
2023-01-20T18:56:28.354Z,38.65
2023-01-20T18:58:59.060Z,38.35
2023-01-20T19:01:29.316Z,40.17
2023-01-20T19:03:56.841Z,41.33
2023-01-20T19:06:30.872Z,43.60
2023-01-20T19:08:58.757Z,39.15
2023-01-20T19:11:31.762Z,41.20
2023-01-20T19:13:59.395Z,45.08
2023-01-20T19:16:32.522Z,49.85
2023-01-20T19:19:03.763Z,47.78
2023-01-20T19:21:32.530Z,52.10
2023-01-20T19:24:01.494Z,49.60
2023-01-20T19:26:28.433Z,48.03
2023-01-20T19:29:03.420Z,47.50
2023-01-20T19:31:31.932Z,44.78
2023-01-20T19:33:58.490Z,39.67
2023-01-20T19:36:25.167Z,39.85
2023-01-20T19:38:51.844Z,46.95
2023-01-20T19:41:21.056Z,45.05
2023-01-20T19:43:47.797Z,40.00
2023-01-20T19:46:16.235Z,38.42
2023-01-20T19:48:43.054Z,45.80
2023-01-20T19:51:13.142Z,50.05
2023-01-20T19:53:40.490Z,49.45
2023-01-20T19:56:09.314Z,41.13
2023-01-20T19:58:39.805Z,52.55
2023-01-20T20:01:12.899Z,50.67
2023-01-20T20:03:39.677Z,44.70
2023-01-20T20:06:07.713Z,45.03
2023-01-20T20:08:36.305Z,45.40
2023-01-20T20:11:11.092Z,41.08
2023-01-20T20:13:37.547Z,42.13
2023-01-20T20:16:05.777Z,41.25
2023-01-20T20:18:32.640Z,48.03
2023-01-20T20:20:59.808Z,40.75
2023-01-20T20:23:26.428Z,47.78
2023-01-20T20:25:57.500Z,55.67
2023-01-20T20:28:28.154Z,54.22
2023-01-20T20:30:55.554Z,54.50
2023-01-20T20:33:25.413Z,53.53
2023-01-20T20:35:52.089Z,49.50
2023-01-20T20:38:18.771Z,50.35
2023-01-20T20:40:46.144Z,45.88
2023-01-20T20:43:12.714Z,55.13
2023-01-20T20:45:39.353Z,50.40
2023-01-20T20:48:06.102Z,46.13
2023-01-20T20:50:34.525Z,43.92
2023-01-20T20:53:01.121Z,39.83
2023-01-20T20:55:29.243Z,38.80
2023-01-20T20:57:56.534Z,42.05
2023-01-20T21:00:25.084Z,45.42
2023-01-20T21:02:51.565Z,42.28
2023-01-20T21:05:20.527Z,45.97
2023-01-20T21:07:46.949Z,47.03
2023-01-20T21:10:15.824Z,43.65
2023-01-20T21:12:43.893Z,48.17
2023-01-20T21:15:11.421Z,42.65
2023-01-20T21:17:40.574Z,43.50
2023-01-20T21:20:10.759Z,41.88
2023-01-20T21:22:38.218Z,47.88
2023-01-20T21:25:06.195Z,49.22
2023-01-20T21:27:33.410Z,48.38
2023-01-20T21:29:59.862Z,43.92
2023-01-20T21:32:26.464Z,45.28
2023-01-20T21:34:53.244Z,43.88
2023-01-20T21:37:20.540Z,41.25
2023-01-20T21:39:46.964Z,43.03
2023-01-20T21:42:13.427Z,38.70
2023-01-20T21:44:42.588Z,39.92
2023-01-20T21:47:09.169Z,42.05
2023-01-20T21:49:54.000Z,39.67
2023-01-20T21:52:41.079Z,42.40
2023-01-20T21:55:22.675Z,45.35
2023-01-20T21:57:51.341Z,44.42
2023-01-20T22:00:18.639Z,38.33
2023-01-20T22:02:45.493Z,39.10
2023-01-20T22:05:13.588Z,43.05
2023-01-20T22:07:40.090Z,43.30
2023-01-20T22:10:07.812Z,44.88
2023-01-20T22:12:35.570Z,43.45
2023-01-20T22:15:03.691Z,41.17
2023-01-20T22:17:33.054Z,44.42
2023-01-20T22:19:59.626Z,39.70
2023-01-20T22:22:26.056Z,42.72
2023-01-20T22:24:53.242Z,41.20
2023-01-20T22:27:19.738Z,34.88
2023-01-20T22:29:46.420Z,37.33
2023-01-20T22:32:12.975Z,37.60
2023-01-20T22:34:39.445Z,44.90
2023-01-20T22:37:05.870Z,39.05
2023-01-20T22:39:32.296Z,36.75
2023-01-20T22:41:58.752Z,37.80
2023-01-20T22:44:25.369Z,42.42
2023-01-20T22:46:51.898Z,40.20
2023-01-20T22:49:18.467Z,42.35
2023-01-20T22:51:45.093Z,42.92
2023-01-20T22:54:11.745Z,43.42
2023-01-20T22:56:39.485Z,44.42
2023-01-20T22:59:06.525Z,32.78
2023-01-20T23:01:35.163Z,36.97
2023-01-20T23:04:04.137Z,37.65
2023-01-20T23:06:34.553Z,40.92
2023-01-20T23:09:04.663Z,40.78
2023-01-20T23:11:32.371Z,39.55
2023-01-20T23:13:58.951Z,39.30
2023-01-20T23:16:25.492Z,36.58
2023-01-20T23:18:53.056Z,39.17
2023-01-20T23:21:20.727Z,44.22
2023-01-20T23:23:54.112Z,40.83
2023-01-20T23:26:26.498Z,41.80
2023-01-20T23:28:53.973Z,38.50
2023-01-20T23:31:21.804Z,42.40
2023-01-20T23:33:48.414Z,34.22
2023-01-20T23:36:33.128Z,42.00
2023-01-20T23:38:59.625Z,57.60
2023-01-20T23:41:26.185Z,35.33
2023-01-20T23:43:52.709Z,35.80
2023-01-20T23:46:19.455Z,34.05
2023-01-20T23:48:46.968Z,41.65
2023-01-20T23:51:13.913Z,38.60
2023-01-20T23:53:46.168Z,37.13
2023-01-20T23:56:16.182Z,44.38
2023-01-20T23:58:43.087Z,39.35
